sensor_id;sensor_type;location;lat;lon;timestamp;pressure;altitude;pressure_sealevel;temperature;humidity
49841;BME280;35738;49.890;5.930;2023-02-01T00:01:07;96260.75;;;3.14;100.00
49841;BME280;35738;49.890;5.930;2023-02-01T00:03:34;96256.66;;;3.27;100.00
49841;BME280;35738;49.890;5.930;2023-02-01T00:06:01;96259.38;;;3.27;100.00
49841;BME280;35738;49.890;5.930;2023-02-01T00:08:28;96234.94;;;3.17;100.00
49841;BME280;35738;49.890;5.930;2023-02-01T00:11:04;96242.56;;;3.10;100.00
49841;BME280;35738;49.890;5.930;2023-02-01T00:13:32;96211.03;;;3.14;100.00
49841;BME280;35738;49.890;5.930;2023-02-01T00:16:14;96234.13;;;3.11;100.00
49841;BME280;35738;49.890;5.930;2023-02-01T00:18:43;96218.09;;;3.10;100.00
49841;BME280;35738;49.890;5.930;2023-02-01T00:21:11;96227.59;;;3.12;100.00
49841;BME280;35738;49.890;5.930;2023-02-01T00:23:38;96222.44;;;3.11;100.00
49841;BME280;35738;49.890;5.930;2023-02-01T00:26:10;96223.25;;;3.22;100.00
49841;BME280;35738;49.890;5.930;2023-02-01T00:28:39;96210.75;;;3.21;100.00
49841;BME280;35738;49.890;5.930;2023-02-01T00:31:05;96220.78;;;3.30;100.00
49841;BME280;35738;49.890;5.930;2023-02-01T00:33:33;96216.16;;;3.31;100.00
49841;BME280;35738;49.890;5.930;2023-02-01T00:36:02;96196.34;;;3.20;100.00
49841;BME280;35738;49.890;5.930;2023-02-01T00:38:29;96205.84;;;3.28;100.00
49841;BME280;35738;49.890;5.930;2023-02-01T00:41:04;96210.44;;;3.37;100.00
49841;BME280;35738;49.890;5.930;2023-02-01T00:43:31;96223.75;;;3.39;100.00
49841;BME280;35738;49.890;5.930;2023-02-01T00:45:58;96225.16;;;3.26;100.00
49841;BME280;35738;49.890;5.930;2023-02-01T00:48:25;96217.25;;;3.35;100.00
49841;BME280;35738;49.890;5.930;2023-02-01T00:50:52;96219.69;;;3.36;100.00
49841;BME280;35738;49.890;5.930;2023-02-01T00:53:19;96219.94;;;3.45;100.00
49841;BME280;35738;49.890;5.930;2023-02-01T00:55:48;96196.31;;;3.35;100.00
49841;BME280;35738;49.890;5.930;2023-02-01T00:58:15;96220.78;;;3.35;100.00
49841;BME280;35738;49.890;5.930;2023-02-01T01:00:42;96226.75;;;3.42;100.00
49841;BME280;35738;49.890;5.930;2023-02-01T01:03:08;96219.13;;;3.44;100.00
49841;BME280;35738;49.890;5.930;2023-02-01T01:05:45;96208.53;;;3.33;100.00
49841;BME280;35738;49.890;5.930;2023-02-01T01:08:12;96206.38;;;3.25;100.00
49841;BME280;35738;49.890;5.930;2023-02-01T01:10:39;96205.00;;;3.37;100.00
49841;BME280;35738;49.890;5.930;2023-02-01T01:13:06;96231.09;;;3.43;100.00
49841;BME280;35738;49.890;5.930;2023-02-01T01:15:38;96222.41;;;3.36;100.00
49841;BME280;35738;49.890;5.930;2023-02-01T01:18:05;96228.09;;;3.45;100.00
49841;BME280;35738;49.890;5.930;2023-02-01T01:20:37;96229.72;;;3.46;100.00
49841;BME280;35738;49.890;5.930;2023-02-01T01:23:05;96222.91;;;3.48;100.00
49841;BME280;35738;49.890;5.930;2023-02-01T01:25:32;96232.13;;;3.58;100.00
49841;BME280;35738;49.890;5.930;2023-02-01T01:27:58;96229.72;;;3.46;100.00
49841;BME280;35738;49.890;5.930;2023-02-01T01:30:25;96226.72;;;3.47;100.00
49841;BME280;35738;49.890;5.930;2023-02-01T01:32:52;96235.69;;;3.53;100.00
49841;BME280;35738;49.890;5.930;2023-02-01T01:35:18;96230.78;;;3.50;100.00
49841;BME280;35738;49.890;5.930;2023-02-01T01:37:45;96232.16;;;3.53;100.00
49841;BME280;35738;49.890;5.930;2023-02-01T01:40:12;96218.00;;;3.50;100.00
49841;BME280;35738;49.890;5.930;2023-02-01T01:42:43;96235.41;;;3.49;100.00
49841;BME280;35738;49.890;5.930;2023-02-01T01:45:33;96227.00;;;3.46;100.00
49841;BME280;35738;49.890;5.930;2023-02-01T01:50:51;96210.69;;;3.46;100.00
49841;BME280;35738;49.890;5.930;2023-02-01T01:53:27;96223.44;;;3.50;100.00
49841;BME280;35738;49.890;5.930;2023-02-01T01:55:55;96215.28;;;3.50;100.00
49841;BME280;35738;49.890;5.930;2023-02-01T01:58:24;96213.13;;;3.53;100.00
49841;BME280;35738;49.890;5.930;2023-02-01T02:00:53;96196.81;;;3.42;100.00
49841;BME280;35738;49.890;5.930;2023-02-01T02:03:27;96196.50;;;3.59;100.00
49841;BME280;35738;49.890;5.930;2023-02-01T02:05:58;96178.63;;;3.43;100.00
49841;BME280;35738;49.890;5.930;2023-02-01T02:08:28;96176.44;;;3.45;100.00
49841;BME280;35738;49.890;5.930;2023-02-01T02:10:55;96175.59;;;3.49;100.00
49841;BME280;35738;49.890;5.930;2023-02-01T02:13:35;96181.06;;;3.44;100.00
49841;BME280;35738;49.890;5.930;2023-02-01T02:38:32;96194.13;;;3.42;100.00
49841;BME280;35738;49.890;5.930;2023-02-01T02:44:21;96211.19;;;3.58;100.00
49841;BME280;35738;49.890;5.930;2023-02-01T02:47:15;96209.56;;;3.57;100.00
49841;BME280;35738;49.890;5.930;2023-02-01T02:49:58;96207.91;;;3.66;100.00
49841;BME280;35738;49.890;5.930;2023-02-01T02:52:57;96209.84;;;3.50;100.00
49841;BME280;35738;49.890;5.930;2023-02-01T02:55:44;96209.28;;;3.59;100.00
49841;BME280;35738;49.890;5.930;2023-02-01T02:58:12;96202.00;;;3.44;100.00
49841;BME280;35738;49.890;5.930;2023-02-01T03:00:59;96213.13;;;3.47;100.00
49841;BME280;35738;49.890;5.930;2023-02-01T03:03:44;96211.22;;;3.53;100.00
49841;BME280;35738;49.890;5.930;2023-02-01T03:06:32;96207.16;;;3.45;100.00
49841;BME280;35738;49.890;5.930;2023-02-01T03:09:01;96187.31;;;3.40;100.00
49841;BME280;35738;49.890;5.930;2023-02-01T03:11:32;96194.13;;;3.42;100.00
49841;BME280;35738;49.890;5.930;2023-02-01T03:14:21;96200.59;;;3.51;100.00
49841;BME280;35738;49.890;5.930;2023-02-01T03:16:57;96194.34;;;3.51;100.00
49841;BME280;35738;49.890;5.930;2023-02-01T03:19:38;96200.09;;;3.44;100.00
49841;BME280;35738;49.890;5.930;2023-02-01T03:22:12;96212.03;;;3.48;100.00
49841;BME280;35738;49.890;5.930;2023-02-01T03:24:54;96199.81;;;3.41;100.00
49841;BME280;35738;49.890;5.930;2023-02-01T03:27:29;96205.28;;;3.36;100.00
49841;BME280;35738;49.890;5.930;2023-02-01T03:30:02;96192.50;;;3.36;100.00
49841;BME280;35738;49.890;5.930;2023-02-01T03:32:33;96200.66;;;3.36;100.00
49841;BME280;35738;49.890;5.930;2023-02-01T03:41:36;96197.94;;;3.36;100.00
49841;BME280;35738;49.890;5.930;2023-02-01T03:44:24;96195.78;;;3.33;100.00
49841;BME280;35738;49.890;5.930;2023-02-01T03:46:56;96203.38;;;3.36;100.00
49841;BME280;35738;49.890;5.930;2023-02-01T03:49:40;96196.03;;;3.37;100.00
49841;BME280;35738;49.890;5.930;2023-02-01T03:52:14;96202.31;;;3.27;100.00
49841;BME280;35738;49.890;5.930;2023-02-01T03:54:44;96211.28;;;3.28;100.00
49841;BME280;35738;49.890;5.930;2023-02-01T03:57:14;96214.53;;;3.30;100.00
49841;BME280;35738;49.890;5.930;2023-02-01T03:59:45;96212.91;;;3.29;100.00
49841;BME280;35738;49.890;5.930;2023-02-01T04:02:11;96198.22;;;3.30;100.00
49841;BME280;35738;49.890;5.930;2023-02-01T04:04:38;96209.66;;;3.27;100.00
49841;BME280;35738;49.890;5.930;2023-02-01T04:07:05;96209.38;;;3.23;100.00
49841;BME280;35738;49.890;5.930;2023-02-01T04:09:31;96208.53;;;3.33;100.00
49841;BME280;35738;49.890;5.930;2023-02-01T04:11:58;96212.88;;;3.39;100.00
49841;BME280;35738;49.890;5.930;2023-02-01T04:14:25;96230.56;;;3.31;100.00
49841;BME280;35738;49.890;5.930;2023-02-01T04:16:51;96222.41;;;3.31;100.00
49841;BME280;35738;49.890;5.930;2023-02-01T04:19:18;96221.88;;;3.24;100.00
49841;BME280;35738;49.890;5.930;2023-02-01T04:21:44;96228.66;;;3.37;100.00
49841;BME280;35738;49.890;5.930;2023-02-01T04:24:11;96227.03;;;3.31;100.00
49841;BME280;35738;49.890;5.930;2023-02-01T04:26:38;96231.09;;;3.33;100.00
49841;BME280;35738;49.890;5.930;2023-02-01T04:29:05;96230.31;;;3.23;100.00
49841;BME280;35738;49.890;5.930;2023-02-01T04:31:31;96230.03;;;3.29;100.00
49841;BME280;35738;49.890;5.930;2023-02-01T04:33:58;96228.94;;;3.30;100.00
49841;BME280;35738;49.890;5.930;2023-02-01T04:36:25;96212.09;;;3.23;100.00
49841;BME280;35738;49.890;5.930;2023-02-01T04:38:51;96220.53;;;3.27;100.00
49841;BME280;35738;49.890;5.930;2023-02-01T04:41:19;96217.53;;;3.28;100.00
49841;BME280;35738;49.890;5.930;2023-02-01T04:43:47;96224.06;;;3.17;100.00
49841;BME280;35738;49.890;5.930;2023-02-01T04:46:14;96222.16;;;3.17;100.00
49841;BME280;35738;49.890;5.930;2023-02-01T04:48:41;96226.50;;;3.24;100.00
49841;BME280;35738;49.890;5.930;2023-02-01T04:51:09;96222.97;;;3.23;100.00
49841;BME280;35738;49.890;5.930;2023-02-01T04:53:36;96208.84;;;3.16;100.00
49841;BME280;35738;49.890;5.930;2023-02-01T04:56:02;96201.53;;;3.11;100.00
49841;BME280;35738;49.890;5.930;2023-02-01T04:58:29;96207.22;;;3.10;100.00
49841;BME280;35738;49.890;5.930;2023-02-01T05:00:56;96202.91;;;3.04;100.00
49841;BME280;35738;49.890;5.930;2023-02-01T05:03:23;96199.09;;;3.05;100.00
49841;BME280;35738;49.890;5.930;2023-02-01T05:05:49;96209.13;;;3.14;100.00
49841;BME280;35738;49.890;5.930;2023-02-01T05:08:16;96206.69;;;3.03;100.00
49841;BME280;35738;49.890;5.930;2023-02-01T05:10:44;96214.56;;;3.04;100.00
49841;BME280;35738;49.890;5.930;2023-02-01T05:13:11;96231.16;;;3.13;100.00
49841;BME280;35738;49.890;5.930;2023-02-01T05:15:56;96224.09;;;3.02;100.00
49841;BME280;35738;49.890;5.930;2023-02-01T05:18:23;96224.09;;;3.02;100.00
49841;BME280;35738;49.890;5.930;2023-02-01T05:20:49;96226.78;;;2.86;100.00
49841;BME280;35738;49.890;5.930;2023-02-01T05:23:16;96235.47;;;2.94;100.00
49841;BME280;35738;49.890;5.930;2023-02-01T05:25:43;96251.22;;;2.86;100.00
49841;BME280;35738;49.890;5.930;2023-02-01T05:28:09;96239.81;;;2.79;100.00
49841;BME280;35738;49.890;5.930;2023-02-01T05:30:36;96252.84;;;2.77;100.00
49841;BME280;35738;49.890;5.930;2023-02-01T05:33:05;96259.63;;;2.65;100.00
49841;BME280;35738;49.890;5.930;2023-02-01T05:35:32;96262.38;;;2.75;100.00
49841;BME280;35738;49.890;5.930;2023-02-01T05:37:58;96265.88;;;2.70;100.00
49841;BME280;35738;49.890;5.930;2023-02-01T05:40:25;96260.72;;;2.74;100.00
49841;BME280;35738;49.890;5.930;2023-02-01T05:42:52;96246.88;;;2.65;100.00
49841;BME280;35738;49.890;5.930;2023-02-01T05:45:18;96246.34;;;2.63;100.00
49841;BME280;35738;49.890;5.930;2023-02-01T05:47:45;96262.63;;;2.68;100.00
49841;BME280;35738;49.890;5.930;2023-02-01T05:50:12;96266.97;;;2.69;100.00
49841;BME280;35738;49.890;5.930;2023-02-01T05:52:38;96258.00;;;2.59;100.00
49841;BME280;35738;49.890;5.930;2023-02-01T05:55:05;96255.03;;;2.65;100.00
49841;BME280;35738;49.890;5.930;2023-02-01T05:57:32;96252.28;;;2.50;100.00
49841;BME280;35738;49.890;5.930;2023-02-01T05:59:59;96239.25;;;2.37;100.00
49841;BME280;35738;49.890;5.930;2023-02-01T06:02:26;96231.06;;;2.27;100.00
49841;BME280;35738;49.890;5.930;2023-02-01T06:04:53;96236.50;;;2.27;100.00
49841;BME280;35738;49.890;5.930;2023-02-01T06:07:19;96240.59;;;2.29;100.00
49841;BME280;35738;49.890;5.930;2023-02-01T06:09:46;96238.88;;;2.13;100.00
49841;BME280;35738;49.890;5.930;2023-02-01T06:12:12;96235.34;;;2.12;100.00
49841;BME280;35738;49.890;5.930;2023-02-01T06:14:40;96228.56;;;2.05;100.00
49841;BME280;35738;49.890;5.930;2023-02-01T06:17:07;96229.88;;;1.97;100.00
49841;BME280;35738;49.890;5.930;2023-02-01T06:19:33;96214.72;;;2.01;100.00
49841;BME280;35738;49.890;5.930;2023-02-01T06:22:00;96226.63;;;2.00;100.00
49841;BME280;35738;49.890;5.930;2023-02-01T06:28:15;96222.78;;;1.86;100.00
49841;BME280;35738;49.890;5.930;2023-02-01T06:30:41;96221.44;;;1.88;100.00
49841;BME280;35738;49.890;5.930;2023-02-01T06:33:13;96220.59;;;1.78;100.00
49841;BME280;35738;49.890;5.930;2023-02-01T06:35:42;96234.72;;;1.80;100.00
49841;BME280;35738;49.890;5.930;2023-02-01T06:38:11;96239.00;;;1.71;100.00
49841;BME280;35738;49.890;5.930;2023-02-01T06:40:38;96237.09;;;1.71;100.00
49841;BME280;35738;49.890;5.930;2023-02-01T06:43:05;96243.88;;;1.69;100.00
49841;BME280;35738;49.890;5.930;2023-02-01T06:45:32;96243.31;;;1.67;100.00
49841;BME280;35738;49.890;5.930;2023-02-01T06:47:59;96247.94;;;1.66;100.00
49841;BME280;35738;49.890;5.930;2023-02-01T06:50:27;96248.69;;;1.51;100.00
49841;BME280;35738;49.890;5.930;2023-02-01T06:52:54;96244.34;;;1.55;100.00
49841;BME280;35738;49.890;5.930;2023-02-01T06:55:21;96240.00;;;1.49;100.00
49841;BME280;35738;49.890;5.930;2023-02-01T06:57:47;96242.16;;;1.52;100.00
49841;BME280;35738;49.890;5.930;2023-02-01T07:00:14;96239.47;;;1.52;100.00
49841;BME280;35738;49.890;5.930;2023-02-01T07:02:41;96243.75;;;1.48;100.00
49841;BME280;35738;49.890;5.930;2023-02-01T07:05:08;96222.00;;;1.38;100.00
49841;BME280;35738;49.890;5.930;2023-02-01T07:07:35;96231.22;;;1.37;100.00
49841;BME280;35738;49.890;5.930;2023-02-01T07:10:02;96223.88;;;1.33;100.00
49841;BME280;35738;49.890;5.930;2023-02-01T07:12:28;96235.75;;;1.26;100.00
49841;BME280;35738;49.890;5.930;2023-02-01T07:14:55;96235.16;;;1.14;100.00
49841;BME280;35738;49.890;5.930;2023-02-01T07:17:23;96243.31;;;1.19;100.00
49841;BME280;35738;49.890;5.930;2023-02-01T07:19:49;96251.97;;;1.16;100.00
49841;BME280;35738;49.890;5.930;2023-02-01T07:22:16;96247.88;;;1.14;100.00
49841;BME280;35738;49.890;5.930;2023-02-01T07:24:43;96255.47;;;1.17;100.00
49841;BME280;35738;49.890;5.930;2023-02-01T07:27:10;96253.28;;;1.14;100.00
49841;BME280;35738;49.890;5.930;2023-02-01T07:29:36;96249.25;;;1.16;100.00
49841;BME280;35738;49.890;5.930;2023-02-01T07:32:03;96253.81;;;1.11;100.00
49841;BME280;35738;49.890;5.930;2023-02-01T07:34:30;96260.16;;;1.26;100.00
49841;BME280;35738;49.890;5.930;2023-02-01T07:36:57;96260.13;;;1.21;100.00
49841;BME280;35738;49.890;5.930;2023-02-01T07:39:23;96260.16;;;1.26;100.00
49841;BME280;35738;49.890;5.930;2023-02-01T07:41:50;96268.00;;;1.23;100.00
49841;BME280;35738;49.890;5.930;2023-02-01T07:44:16;96287.03;;;1.33;100.00
49841;BME280;35738;49.890;5.930;2023-02-01T07:46:49;96278.34;;;1.31;100.00
49841;BME280;35738;49.890;5.930;2023-02-01T07:49:16;96287.84;;;1.34;100.00
49841;BME280;35738;49.890;5.930;2023-02-01T07:51:44;96273.75;;;1.37;100.00
49841;BME280;35738;49.890;5.930;2023-02-01T07:54:10;96271.44;;;1.50;100.00
49841;BME280;35738;49.890;5.930;2023-02-01T07:56:37;96261.31;;;1.41;100.00
49841;BME280;35738;49.890;5.930;2023-02-01T07:59:03;96272.50;;;1.49;100.00
49841;BME280;35738;49.890;5.930;2023-02-01T08:01:30;96268.13;;;1.48;100.00
49841;BME280;35738;49.890;5.930;2023-02-01T08:03:59;96268.41;;;1.47;100.00
49841;BME280;35738;49.890;5.930;2023-02-01T08:06:27;96271.19;;;1.52;100.00
49841;BME280;35738;49.890;5.930;2023-02-01T08:08:54;96269.22;;;1.47;100.00
49841;BME280;35738;49.890;5.930;2023-02-01T08:11:22;96265.69;;;1.47;100.00
49841;BME280;35738;49.890;5.930;2023-02-01T08:13:50;96275.78;;;1.51;100.00
49841;BME280;35738;49.890;5.930;2023-02-01T08:16:19;96268.50;;;1.57;100.00
49841;BME280;35738;49.890;5.930;2023-02-01T08:18:46;96270.47;;;1.72;100.00
49841;BME280;35738;49.890;5.930;2023-02-01T08:21:18;96262.00;;;1.63;100.00
49841;BME280;35738;49.890;5.930;2023-02-01T08:23:46;96241.66;;;1.61;100.00
49841;BME280;35738;49.890;5.930;2023-02-01T08:26:20;96274.00;;;1.72;100.00
49841;BME280;35738;49.890;5.930;2023-02-01T08:28:53;96289.47;;;1.77;100.00
49841;BME280;35738;49.890;5.930;2023-02-01T08:31:21;96295.44;;;1.79;100.00
49841;BME280;35738;49.890;5.930;2023-02-01T08:33:51;96282.41;;;1.76;100.00
49841;BME280;35738;49.890;5.930;2023-02-01T08:36:19;96290.31;;;1.82;100.00
49841;BME280;35738;49.890;5.930;2023-02-01T08:38:46;96291.34;;;1.71;100.00
49841;BME280;35738;49.890;5.930;2023-02-01T08:41:15;96284.38;;;1.90;100.00
49841;BME280;35738;49.890;5.930;2023-02-01T08:43:42;96290.59;;;1.86;100.00
49841;BME280;35738;49.890;5.930;2023-02-01T08:46:09;96299.31;;;1.93;100.00
49841;BME280;35738;49.890;5.930;2023-02-01T08:48:36;96294.66;;;1.83;100.00
49841;BME280;35738;49.890;5.930;2023-02-01T08:51:10;96304.22;;;2.01;100.00
49841;BME280;35738;49.890;5.930;2023-02-01T08:53:37;96309.63;;;1.96;100.00
49841;BME280;35738;49.890;5.930;2023-02-01T08:56:07;96326.22;;;2.05;100.00
49841;BME280;35738;49.890;5.930;2023-02-01T08:58:34;96310.16;;;1.93;100.00
49841;BME280;35738;49.890;5.930;2023-02-01T09:01:05;96306.38;;;1.99;100.00
49841;BME280;35738;49.890;5.930;2023-02-01T09:03:32;96314.78;;;1.98;100.00
49841;BME280;35738;49.890;5.930;2023-02-01T09:06:04;96322.72;;;2.14;100.00
49841;BME280;35738;49.890;5.930;2023-02-01T09:08:32;96328.69;;;2.16;100.00
49841;BME280;35738;49.890;5.930;2023-02-01T09:11:03;96333.88;;;2.18;100.00
49841;BME280;35738;49.890;5.930;2023-02-01T09:13:30;96330.34;;;2.17;100.00
49841;BME280;35738;49.890;5.930;2023-02-01T09:15:57;96334.47;;;2.25;100.00
49841;BME280;35738;49.890;5.930;2023-02-01T09:18:26;96336.03;;;2.16;100.00
49841;BME280;35738;49.890;5.930;2023-02-01T09:20:53;96318.69;;;2.22;100.00
49841;BME280;35738;49.890;5.930;2023-02-01T09:23:20;96322.53;;;2.26;100.00
49841;BME280;35738;49.890;5.930;2023-02-01T09:25:46;96342.91;;;2.29;100.00
49841;BME280;35738;49.890;5.930;2023-02-01T09:28:17;96344.81;;;2.38;100.00
49841;BME280;35738;49.890;5.930;2023-02-01T09:30:44;96339.41;;;2.38;100.00
49841;BME280;35738;49.890;5.930;2023-02-01T09:33:10;96345.97;;;2.52;100.00
49841;BME280;35738;49.890;5.930;2023-02-01T09:35:37;96349.78;;;2.62;100.00
49841;BME280;35738;49.890;5.930;2023-02-01T09:38:04;96360.38;;;2.63;100.00
49841;BME280;35738;49.890;5.930;2023-02-01T09:40:33;96352.75;;;2.50;100.00
49841;BME280;35738;49.890;5.930;2023-02-01T09:43:15;96355.78;;;2.69;100.00
49841;BME280;35738;49.890;5.930;2023-02-01T09:46:16;96353.34;;;2.77;100.00
49841;BME280;35738;49.890;5.930;2023-02-01T09:48:45;96352.81;;;2.80;100.00
49841;BME280;35738;49.890;5.930;2023-02-01T09:51:20;96350.63;;;2.77;100.00
49841;BME280;35738;49.890;5.930;2023-02-01T09:54:17;96338.16;;;2.81;100.00
49841;BME280;35738;49.890;5.930;2023-02-01T09:56:48;96344.69;;;2.91;100.00
49841;BME280;35738;49.890;5.930;2023-02-01T09:59:39;96338.16;;;2.86;100.00
49841;BME280;35738;49.890;5.930;2023-02-01T10:02:19;96351.25;;;3.00;100.00
49841;BME280;35738;49.890;5.930;2023-02-01T10:04:48;96342.56;;;2.98;100.00
49841;BME280;35738;49.890;5.930;2023-02-01T10:13:01;96348.25;;;3.01;100.00
49841;BME280;35738;49.890;5.930;2023-02-01T10:15:54;96342.00;;;3.01;100.00
49841;BME280;35738;49.890;5.930;2023-02-01T10:18:34;96340.94;;;3.12;100.00
49841;BME280;35738;49.890;5.930;2023-02-01T10:24:16;96346.38;;;3.17;100.00
49841;BME280;35738;49.890;5.930;2023-02-01T10:26:52;96343.09;;;3.25;100.00
49841;BME280;35738;49.890;5.930;2023-02-01T10:29:27;96344.47;;;3.02;100.00
49841;BME280;35738;49.890;5.930;2023-02-01T10:31:56;96348.53;;;3.15;100.00
49841;BME280;35738;49.890;5.930;2023-02-01T10:34:31;96342.84;;;3.06;100.00
49841;BME280;35738;49.890;5.930;2023-02-01T10:37:47;96346.38;;;3.27;100.00
49841;BME280;35738;49.890;5.930;2023-02-01T10:39:49;96346.91;;;3.14;100.00
49841;BME280;35738;49.890;5.930;2023-02-01T10:42:20;96349.63;;;3.24;100.00
49841;BME280;35738;49.890;5.930;2023-02-01T10:44:47;96344.75;;;3.26;100.00
49841;BME280;35738;49.890;5.930;2023-02-01T10:47:14;96348.28;;;3.16;100.00
49841;BME280;35738;49.890;5.930;2023-02-01T10:49:55;96354.25;;;3.24;100.00
49841;BME280;35738;49.890;5.930;2023-02-01T10:52:31;96348.53;;;3.20;100.00
49841;BME280;35738;49.890;5.930;2023-02-01T10:58:32;96347.19;;;3.33;100.00
49841;BME280;35738;49.890;5.930;2023-02-01T11:01:04;96346.38;;;3.47;100.00
49841;BME280;35738;49.890;5.930;2023-02-01T11:03:39;96339.84;;;3.48;100.00
49841;BME280;35738;49.890;5.930;2023-02-01T11:06:31;96328.44;;;3.36;100.00
49841;BME280;35738;49.890;5.930;2023-02-01T11:14:18;96321.91;;;3.32;100.00
49841;BME280;35738;49.890;5.930;2023-02-01T11:16:53;96320.00;;;3.43;98.90
49841;BME280;35738;49.890;5.930;2023-02-01T11:19:20;96336.31;;;3.43;100.00
49841;BME280;35738;49.890;5.930;2023-02-01T11:21:55;96327.59;;;3.56;100.00
49841;BME280;35738;49.890;5.930;2023-02-01T11:24:27;96318.63;;;3.50;99.70
49841;BME280;35738;49.890;5.930;2023-02-01T11:27:00;96324.34;;;3.54;100.00
49841;BME280;35738;49.890;5.930;2023-02-01T11:29:43;96334.38;;;3.64;99.73
49841;BME280;35738;49.890;5.930;2023-02-01T11:32:13;96321.88;;;3.68;99.78
49841;BME280;35738;49.890;5.930;2023-02-01T11:34:45;96330.59;;;3.55;100.00
49841;BME280;35738;49.890;5.930;2023-02-01T11:37:25;96311.53;;;3.70;98.96
49841;BME280;35738;49.890;5.930;2023-02-01T11:39:58;96319.16;;;3.73;98.96
49841;BME280;35738;49.890;5.930;2023-02-01T11:42:27;96325.66;;;3.67;99.52
49841;BME280;35738;49.890;5.930;2023-02-01T11:45:24;96323.50;;;3.79;99.10
49841;BME280;35738;49.890;5.930;2023-02-01T11:47:52;96320.47;;;3.96;97.58
49841;BME280;35738;49.890;5.930;2023-02-01T11:51:17;96332.69;;;3.98;98.25
49841;BME280;35738;49.890;5.930;2023-02-01T11:56:19;96318.03;;;3.94;98.63
49841;BME280;35738;49.890;5.930;2023-02-01T12:06:52;96294.13;;;3.81;98.34
49841;BME280;35738;49.890;5.930;2023-02-01T12:12:08;96292.72;;;3.94;97.38
49841;BME280;35738;49.890;5.930;2023-02-01T12:14:48;96275.56;;;3.98;97.71
49841;BME280;35738;49.890;5.930;2023-02-01T12:37:08;96215.59;;;4.19;95.02
49841;BME280;35738;49.890;5.930;2023-02-01T12:39:42;96237.31;;;4.29;94.69
49841;BME280;35738;49.890;5.930;2023-02-01T12:44:51;96232.47;;;4.65;91.15
49841;BME280;35738;49.890;5.930;2023-02-01T12:47:45;96222.31;;;4.75;90.76
49841;BME280;35738;49.890;5.930;2023-02-01T12:50:42;96232.94;;;4.77;89.73
49841;BME280;35738;49.890;5.930;2023-02-01T12:53:22;96213.44;;;4.94;87.99
49841;BME280;35738;49.890;5.930;2023-02-01T12:55:56;96225.69;;;4.96;88.03
49841;BME280;35738;49.890;5.930;2023-02-01T13:04:30;96237.31;;;4.73;88.03
49841;BME280;35738;49.890;5.930;2023-02-01T13:07:18;96248.00;;;4.64;88.92
49841;BME280;35738;49.890;5.930;2023-02-01T13:09:51;96244.72;;;4.67;89.26
49841;BME280;35738;49.890;5.930;2023-02-01T13:12:35;96255.09;;;4.65;87.02
49841;BME280;35738;49.890;5.930;2023-02-01T13:15:27;96242.09;;;4.52;88.32
49841;BME280;35738;49.890;5.930;2023-02-01T13:17:58;96245.19;;;4.79;85.52
49841;BME280;35738;49.890;5.930;2023-02-01T13:20:36;96234.34;;;4.69;87.68
49841;BME280;35738;49.890;5.930;2023-02-01T13:23:26;96243.16;;;4.56;87.09
49841;BME280;35738;49.890;5.930;2023-02-01T13:25:54;96232.53;;;4.55;88.12
49841;BME280;35738;49.890;5.930;2023-02-01T13:28:28;96244.25;;;4.55;87.71
49841;BME280;35738;49.890;5.930;2023-02-01T13:41:53;96227.31;;;4.63;86.30
49841;BME280;35738;49.890;5.930;2023-02-01T13:44:45;96232.75;;;4.63;87.18
49841;BME280;35738;49.890;5.930;2023-02-01T13:47:21;96214.72;;;4.72;87.71
49841;BME280;35738;49.890;5.930;2023-02-01T13:49:50;96205.56;;;4.58;86.38
49841;BME280;35738;49.890;5.930;2023-02-01T13:52:44;96201.78;;;4.54;86.86
49841;BME280;35738;49.890;5.930;2023-02-01T13:55:24;96203.28;;;4.70;86.88
49841;BME280;35738;49.890;5.930;2023-02-01T13:58:02;96213.25;;;4.85;85.80
49841;BME280;35738;49.890;5.930;2023-02-01T14:00:33;96221.91;;;4.58;87.05
49841;BME280;35738;49.890;5.930;2023-02-01T14:03:09;96221.94;;;4.87;86.52
49841;BME280;35738;49.890;5.930;2023-02-01T14:10:55;96245.06;;;4.95;86.72
49841;BME280;35738;49.890;5.930;2023-02-01T14:13:38;96233.28;;;4.65;87.65
49841;BME280;35738;49.890;5.930;2023-02-01T14:23:59;96252.84;;;4.72;83.92
49841;BME280;35738;49.890;5.930;2023-02-01T14:32:16;96246.88;;;4.70;85.67
49841;BME280;35738;49.890;5.930;2023-02-01T14:34:50;96248.75;;;4.75;86.36
49841;BME280;35738;49.890;5.930;2023-02-01T14:39:53;96240.56;;;4.75;85.81
49841;BME280;35738;49.890;5.930;2023-02-01T14:44:53;96246.94;;;4.60;84.67
49841;BME280;35738;49.890;5.930;2023-02-01T14:47:26;96255.06;;;4.70;84.67
49841;BME280;35738;49.890;5.930;2023-02-01T14:52:22;96251.25;;;4.66;84.43
49841;BME280;35738;49.890;5.930;2023-02-01T14:54:54;96246.78;;;4.36;85.18
49841;BME280;35738;49.890;5.930;2023-02-01T14:57:25;96237.22;;;4.44;85.67
49841;BME280;35738;49.890;5.930;2023-02-01T15:00:00;96237.81;;;4.36;86.85
49841;BME280;35738;49.890;5.930;2023-02-01T15:02:33;96221.00;;;4.24;86.22
49841;BME280;35738;49.890;5.930;2023-02-01T15:05:01;96240.50;;;4.46;84.26
49841;BME280;35738;49.890;5.930;2023-02-01T15:07:28;96235.88;;;4.46;84.69
49841;BME280;35738;49.890;5.930;2023-02-01T15:09:57;96232.91;;;4.38;85.47
49841;BME280;35738;49.890;5.930;2023-02-01T15:12:27;96238.13;;;4.29;87.00
49841;BME280;35738;49.890;5.930;2023-02-01T15:17:39;96252.53;;;4.30;86.75
49841;BME280;35738;49.890;5.930;2023-02-01T15:20:18;96236.84;;;4.11;87.14
49841;BME280;35738;49.890;5.930;2023-02-01T15:22:58;96252.94;;;4.08;87.00
49841;BME280;35738;49.890;5.930;2023-02-01T15:25:31;96253.16;;;4.17;88.50
49841;BME280;35738;49.890;5.930;2023-02-01T15:27:58;96265.34;;;4.29;86.73
49841;BME280;35738;49.890;5.930;2023-02-01T15:30:28;96260.81;;;4.09;87.73
49841;BME280;35738;49.890;5.930;2023-02-01T15:35:39;96267.28;;;4.24;89.17
49841;BME280;35738;49.890;5.930;2023-02-01T15:41:18;96253.13;;;4.22;88.00
49841;BME280;35738;49.890;5.930;2023-02-01T15:46:32;96265.09;;;4.26;88.17
49841;BME280;35738;49.890;5.930;2023-02-01T15:49:02;96260.75;;;4.25;89.03
49841;BME280;35738;49.890;5.930;2023-02-01T15:51:30;96254.50;;;4.19;89.02